Time;durP1;ratioP1;P1;durP2;ratioP2;P2;SDS_P1;SDS_P2;PMS_P1;PMS_P2;Temp;Humidity;BMP_temperature;BMP_pressure;BME280_temperature;BME280_humidity;BME280_pressure;Samples;Min_cycle;Max_cycle;Signal;HPM_P1;HPM_P2
2023/09/17 00:02:22;;;;;;;14.75;9.95;;;;;;;26.27;48.16;101519.31;4992790;28;20489;-67
2023/09/17 00:04:48;;;;;;;14.88;9.80;;;;;;;26.59;46.97;101514.47;4992771;28;20076;-68
2023/09/17 00:07:13;;;;;;;15.23;9.30;;;;;;;25.83;47.96;101505.13;4991723;28;20028;-68
2023/09/17 00:09:39;;;;;;;13.48;9.20;;;;;;;26.20;46.60;101494.75;4992853;28;20061;-68
2023/09/17 00:12:05;;;;;;;13.95;8.88;;;;;;;25.64;47.44;101499.25;5009427;28;20034;-67
2023/09/17 00:14:30;;;;;;;13.93;9.45;;;;;;;25.98;46.59;101497.06;5008751;28;20038;-68
2023/09/17 00:16:55;;;;;;;12.20;8.65;;;;;;;26.79;45.94;101498.03;5010021;28;20025;-68
2023/09/17 00:19:21;;;;;;;12.55;9.32;;;;;;;26.14;46.63;101495.13;5010050;28;20041;-68
2023/09/17 00:21:46;;;;;;;12.55;9.10;;;;;;;25.90;47.27;101490.38;4992604;28;20029;-68
2023/09/17 00:24:12;;;;;;;14.77;9.20;;;;;;;25.26;46.76;101499.78;4988830;28;20553;-68
2023/09/17 00:26:37;;;;;;;12.52;8.75;;;;;;;26.55;45.18;101496.88;4972276;28;20450;-68
2023/09/17 00:29:03;;;;;;;12.85;8.35;;;;;;;26.67;44.21;101491.66;4972513;28;20033;-68
2023/09/17 00:31:28;;;;;;;13.50;8.95;;;;;;;25.87;45.61;101489.72;4990551;28;20022;-68
2023/09/17 00:33:54;;;;;;;12.68;9.07;;;;;;;25.97;45.80;101476.63;4971682;28;20108;-68
2023/09/17 00:36:20;;;;;;;13.70;8.57;;;;;;;25.93;45.00;101491.16;4973175;28;20037;-68
2023/09/17 00:38:45;;;;;;;13.05;8.75;;;;;;;26.54;44.95;101473.75;4990614;28;20146;-68
2023/09/17 00:41:11;;;;;;;14.23;9.45;;;;;;;25.82;45.65;101487.34;4989399;28;20445;-68
2023/09/17 00:43:36;;;;;;;13.63;8.77;;;;;;;24.87;46.56;101494.94;4973028;28;20030;-68
2023/09/17 00:46:02;;;;;;;11.23;8.25;;;;;;;25.61;45.89;101476.19;4972613;28;20033;-68
2023/09/17 00:48:28;;;;;;;16.33;8.52;;;;;;;26.61;44.43;101473.31;4972056;28;20030;-68
2023/09/17 00:50:54;;;;;;;14.27;8.07;;;;;;;26.26;44.93;101465.84;4992696;28;20154;-68
2023/09/17 00:53:19;;;;;;;13.60;8.70;;;;;;;26.16;45.10;101466.44;4976861;28;20372;-68
2023/09/17 00:55:45;;;;;;;11.73;7.45;;;;;;;25.87;44.99;101462.94;4993627;28;20034;-68
2023/09/17 00:58:12;;;;;;;12.15;7.38;;;;;;;26.11;45.34;101460.50;4994020;28;20036;-68
2023/09/17 01:00:38;;;;;;;12.95;8.02;;;;;;;26.26;43.79;101458.66;4994289;28;20092;-68
2023/09/17 01:03:06;;;;;;;13.07;8.05;;;;;;;25.78;44.37;101459.06;4975957;28;20022;-68
2023/09/17 01:05:39;;;;;;;10.55;7.18;;;;;;;26.23;44.05;101459.69;4992753;28;20033;-68
2023/09/17 01:08:09;;;;;;;10.80;7.55;;;;;;;26.14;43.54;101462.97;4976023;28;20034;-68
2023/09/17 01:10:35;;;;;;;12.32;7.45;;;;;;;26.20;43.67;101449.19;4976051;28;20399;-68
2023/09/17 01:13:02;;;;;;;10.85;7.90;;;;;;;26.29;43.63;101457.59;4993660;28;20037;-68
2023/09/17 01:15:28;;;;;;;13.32;7.55;;;;;;;26.10;44.00;101458.78;4993359;28;20311;-67
2023/09/17 01:17:54;;;;;;;12.85;7.63;;;;;;;26.14;43.09;101460.31;4976256;28;20022;-68
2023/09/17 01:20:29;;;;;;;9.23;6.85;;;;;;;26.00;43.84;101449.63;4993695;28;20113;-68
2023/09/17 01:22:59;;;;;;;9.98;7.28;;;;;;;25.26;43.84;101446.28;4994576;28;20140;-68
2023/09/17 01:25:52;;;;;;;12.30;7.25;;;;;;;25.72;43.94;101443.41;4995610;28;20060;-68
2023/09/17 01:28:18;;;;;;;9.45;7.28;;;;;;;25.89;43.19;101445.81;4995533;28;20021;-68
2023/09/17 01:30:45;;;;;;;9.15;6.65;;;;;;;26.05;43.83;101439.50;4995149;28;20125;-68
2023/09/17 01:33:11;;;;;;;9.45;7.07;;;;;;;25.95;42.65;101433.84;5011430;28;20228;-68
2023/09/17 01:36:01;;;;;;;9.70;7.25;;;;;;;25.93;42.65;101434.94;4995587;28;20034;-68
2023/09/17 01:38:32;;;;;;;10.68;6.55;;;;;;;25.71;42.94;101436.31;4995048;28;20026;-68
2023/09/17 01:41:01;;;;;;;10.07;7.00;;;;;;;25.43;43.71;101431.88;4994958;28;20026;-68
2023/09/17 01:43:27;;;;;;;11.73;7.18;;;;;;;26.09;42.59;101419.59;4995370;28;20091;-68
2023/09/17 01:45:53;;;;;;;11.80;7.47;;;;;;;25.71;42.99;101425.63;4994527;28;20030;-68
2023/09/17 01:48:19;;;;;;;13.60;7.15;;;;;;;26.87;41.42;101410.75;4995219;28;20034;-68
2023/09/17 01:50:47;;;;;;;10.95;7.38;;;;;;;26.55;41.91;101413.78;4994417;28;20036;-68
2023/09/17 01:53:12;;;;;;;11.18;7.45;;;;;;;26.19;42.29;101415.31;5011242;28;20033;-68
2023/09/17 01:55:41;;;;;;;11.20;7.93;;;;;;;26.21;42.66;101415.22;4995171;28;20026;-68
2023/09/17 01:58:09;;;;;;;9.68;6.97;;;;;;;26.37;41.73;101413.22;5011486;28;20489;-68
2023/09/17 02:00:35;;;;;;;10.27;7.38;;;;;;;26.07;43.15;101405.44;5011314;28;20025;-68
2023/09/17 02:03:02;;;;;;;8.77;6.82;;;;;;;26.44;41.71;101407.47;4994745;28;20485;-68
2023/09/17 02:05:28;;;;;;;12.13;7.32;;;;;;;26.36;42.06;101416.00;4994312;28;20448;-68
2023/09/17 02:07:53;;;;;;;8.50;6.70;;;;;;;26.27;42.25;101416.63;4994561;28;20038;-68
2023/09/17 02:10:18;;;;;;;12.60;6.75;;;;;;;26.05;42.26;101418.09;5011492;28;20037;-68
2023/09/17 02:12:44;;;;;;;16.25;7.80;;;;;;;26.27;42.44;101427.34;4994024;28;20513;-68
2023/09/17 02:15:10;;;;;;;10.30;7.35;;;;;;;26.24;42.27;101426.59;5012090;28;20457;-68
2023/09/17 02:17:36;;;;;;;12.43;8.35;;;;;;;26.31;41.92;101426.16;4994898;28;20061;-68
2023/09/17 02:20:02;;;;;;;11.82;7.45;;;;;;;25.98;42.33;101419.38;5009952;28;20108;-68
2023/09/17 02:22:27;;;;;;;9.93;7.22;;;;;;;26.81;41.60;101426.41;4991339;28;20061;-68
2023/09/17 02:24:53;;;;;;;11.00;7.55;;;;;;;26.57;42.17;101424.41;4990937;28;20438;-68
2023/09/17 02:27:18;;;;;;;10.30;7.38;;;;;;;26.81;41.56;101427.25;4974454;28;20506;-68
2023/09/17 02:29:44;;;;;;;10.38;7.03;;;;;;;26.38;42.69;101430.19;4991247;28;20034;-68
2023/09/17 02:32:12;;;;;;;12.75;7.28;;;;;;;26.08;42.86;101425.91;4992143;28;20435;-68
2023/09/17 02:34:38;;;;;;;11.40;6.70;;;;;;;27.17;40.75;101419.41;4974463;28;20049;-69
2023/09/17 02:37:03;;;;;;;10.18;6.90;;;;;;;26.72;42.04;101411.78;4992057;28;20145;-68
2023/09/17 02:39:29;;;;;;;10.95;7.05;;;;;;;26.35;42.66;101417.84;4992655;28;20064;-68
2023/09/17 02:41:55;;;;;;;9.55;7.35;;;;;;;26.30;41.99;101411.09;4990209;28;20467;-68
2023/09/17 02:44:21;;;;;;;11.35;7.07;;;;;;;26.62;42.15;101402.66;4992538;28;20113;-68
2023/09/17 02:46:46;;;;;;;12.75;7.63;;;;;;;26.47;42.05;101407.25;4990154;28;20467;-68
2023/09/17 02:49:11;;;;;;;9.75;7.30;;;;;;;25.53;43.03;101412.44;4974218;28;20030;-68
2023/09/17 02:51:37;;;;;;;8.90;7.00;;;;;;;25.54;43.46;101408.81;4974747;28;20062;-68
2023/09/17 02:54:03;;;;;;;9.80;6.65;;;;;;;26.49;41.89;101405.31;4991079;28;20490;-68
2023/09/17 02:56:29;;;;;;;10.23;7.30;;;;;;;25.94;42.37;101415.19;4974734;28;20026;-68
2023/09/17 02:58:54;;;;;;;9.82;7.05;;;;;;;26.28;42.00;101413.00;4974124;28;20037;-68
2023/09/17 03:01:20;;;;;;;8.70;6.45;;;;;;;25.70;42.56;101407.81;4991325;28;20092;-68
2023/09/17 03:03:46;;;;;;;10.93;7.03;;;;;;;26.77;40.75;101404.28;4974626;28;20058;-68
2023/09/17 03:06:11;;;;;;;11.13;7.13;;;;;;;26.52;41.03;101407.78;4974390;28;20026;-68
2023/09/17 03:08:41;;;;;;;15.65;6.82;;;;;;;26.11;41.68;101412.31;4991484;28;20100;-68
2023/09/17 03:11:13;;;;;;;10.52;6.30;;;;;;;26.38;41.62;101409.59;4973686;28;20066;-68
2023/09/17 03:13:41;;;;;;;11.40;6.88;;;;;;;26.16;41.61;101415.53;4974006;28;20030;-68
2023/09/17 03:16:06;;;;;;;10.00;6.82;;;;;;;26.23;41.75;101402.59;4989435;28;20030;-68
2023/09/17 03:18:32;;;;;;;10.90;6.75;;;;;;;26.17;42.06;101405.66;4974490;28;20029;-68
2023/09/17 03:20:57;;;;;;;8.65;6.90;;;;;;;25.52;43.22;101409.88;4974021;28;20023;-68
2023/09/17 03:23:23;;;;;;;13.38;6.10;;;;;;;25.10;43.82;101407.13;5001789;28;20048;-68
2023/09/17 03:25:48;;;;;;;9.80;6.10;;;;;;;24.86;44.22;101396.13;5011035;28;20402;-68
2023/09/17 03:28:14;;;;;;;10.70;6.80;;;;;;;25.22;44.15;101398.34;4992933;28;20103;-68
2023/09/17 03:30:39;;;;;;;11.15;6.22;;;;;;;25.08;43.66;101401.00;5010177;28;20026;-68
2023/09/17 03:33:05;;;;;;;15.95;7.38;;;;;;;25.40;43.44;101395.44;4992885;28;20104;-68
2023/09/17 03:35:33;;;;;;;9.73;6.45;;;;;;;25.29;43.70;101397.94;4993564;28;20164;-68
2023/09/17 03:37:58;;;;;;;11.18;7.45;;;;;;;25.11;44.84;101394.59;5008402;28;20046;-68
2023/09/17 03:40:24;;;;;;;10.35;6.85;;;;;;;25.62;43.96;101389.56;5009519;28;20112;-68
2023/09/17 03:42:50;;;;;;;10.00;7.38;;;;;;;25.54;44.14;101387.41;4992924;28;20029;-68
2023/09/17 03:45:16;;;;;;;12.63;6.88;;;;;;;25.86;43.43;101387.13;4992240;28;20057;-68
2023/09/17 03:47:43;;;;;;;11.55;7.13;;;;;;;25.31;44.59;101390.69;5010696;28;22423;-68
2023/09/17 03:50:09;;;;;;;9.57;7.05;;;;;;;24.22;47.17;101397.22;4991809;28;20029;-69
2023/09/17 03:52:37;;;;;;;15.95;8.52;;;;;;;24.67;47.21;101380.34;5010844;28;20040;-68
2023/09/17 03:55:07;;;;;;;13.70;7.78;;;;;;;25.18;45.87;101380.75;4992633;28;20398;-68
2023/09/17 03:57:35;;;;;;;13.32;7.90;;;;;;;25.69;44.91;101382.00;4992043;28;20034;-68
2023/09/17 04:00:09;;;;;;;11.13;7.85;;;;;;;25.28;45.20;101375.69;5008858;28;20115;-68
2023/09/17 04:02:35;;;;;;;12.90;7.60;;;;;;;25.95;44.07;101382.13;5010458;28;20025;-68
2023/09/17 04:05:01;;;;;;;11.52;8.10;;;;;;;26.01;44.27;101381.72;5009055;28;20022;-68
2023/09/17 04:07:27;;;;;;;12.85;8.23;;;;;;;25.30;45.45;101389.81;5008925;28;20033;-68
2023/09/17 04:09:52;;;;;;;16.80;8.85;;;;;;;25.46;45.49;101384.38;4992311;28;20041;-68
2023/09/17 04:12:17;;;;;;;12.40;7.68;;;;;;;25.22;46.29;101387.63;5009912;28;20426;-68
2023/09/17 04:14:44;;;;;;;16.60;8.73;;;;;;;25.93;44.23;101381.38;4992397;28;20393;-67
2023/09/17 04:17:09;;;;;;;11.77;7.50;;;;;;;25.12;45.98;101385.63;4992185;28;20108;-68
2023/09/17 04:19:35;;;;;;;11.27;7.82;;;;;;;25.54;45.05;101387.41;4991799;28;20041;-68
2023/09/17 04:22:02;;;;;;;12.60;8.27;;;;;;;25.69;45.21;101380.22;4992150;28;20033;-68
2023/09/17 04:24:28;;;;;;;13.48;8.93;;;;;;;25.04;45.89;101378.94;5010025;28;20052;-68
2023/09/17 04:26:54;;;;;;;16.13;8.43;;;;;;;25.13;45.89;101377.50;5009117;28;20057;-67
2023/09/17 04:29:19;;;;;;;13.98;8.13;;;;;;;25.18;45.93;101379.88;4992088;28;20445;-68
2023/09/17 04:31:49;;;;;;;13.98;8.45;;;;;;;25.17;45.41;101379.03;5010099;28;20025;-68
2023/09/17 04:34:15;;;;;;;13.05;8.20;;;;;;;25.94;44.60;101385.75;5009459;28;20018;-68
2023/09/17 04:36:40;;;;;;;14.85;8.23;;;;;;;25.96;43.94;101382.00;4992326;28;20038;-68
2023/09/17 04:39:09;;;;;;;13.18;8.15;;;;;;;25.80;44.14;101379.50;5009937;28;20022;-68
2023/09/17 04:41:35;;;;;;;12.88;9.32;;;;;;;25.49;44.70;101377.97;5009001;28;20389;-68
2023/09/17 04:44:03;;;;;;;10.18;7.20;;;;;;;25.25;45.01;101386.56;5008315;28;20112;-68
2023/09/17 04:46:29;;;;;;;10.60;7.25;;;;;;;25.53;44.42;101374.97;5007912;28;20030;-68
2023/09/17 04:48:55;;;;;;;13.02;7.90;;;;;;;25.42;44.83;101382.84;5009513;28;20440;-68
2023/09/17 04:51:21;;;;;;;11.90;7.60;;;;;;;25.19;46.12;101378.94;5008655;28;20029;-68
2023/09/17 04:53:46;;;;;;;11.35;8.18;;;;;;;25.30;45.23;101376.44;5008981;28;20053;-68
2023/09/17 04:56:12;;;;;;;11.77;8.38;;;;;;;24.81;45.75;101383.06;4992008;28;20101;-68
2023/09/17 04:58:38;;;;;;;12.43;8.35;;;;;;;25.06;45.57;101376.19;4992253;28;20014;-68
2023/09/17 05:01:06;;;;;;;11.73;8.32;;;;;;;24.89;45.50;101370.06;4990936;28;20030;-68
2023/09/17 05:03:31;;;;;;;13.13;8.25;;;;;;;25.16;46.09;101371.97;5009832;28;20537;-68
2023/09/17 05:05:57;;;;;;;13.05;7.88;;;;;;;25.01;45.76;101370.25;4991743;28;20037;-68
2023/09/17 05:08:22;;;;;;;14.70;8.23;;;;;;;25.30;45.08;101370.22;5007547;28;20394;-68
2023/09/17 05:10:48;;;;;;;14.38;8.15;;;;;;;25.50;45.20;101375.19;4992205;28;20444;-68
2023/09/17 05:13:14;;;;;;;10.98;7.93;;;;;;;24.53;46.80;101367.81;5008071;28;20045;-68
2023/09/17 05:15:39;;;;;;;12.38;7.90;;;;;;;25.71;44.87;101372.06;4991353;28;20489;-68
2023/09/17 05:18:09;;;;;;;15.25;8.30;;;;;;;24.99;45.95;101369.47;5009029;28;20399;-68
2023/09/17 05:20:35;;;;;;;11.30;7.88;;;;;;;25.04;46.05;101383.44;5008568;28;20030;-68
2023/09/17 05:23:01;;;;;;;15.93;8.32;;;;;;;25.34;45.13;101380.66;5006916;28;20050;-68
2023/09/17 05:25:26;;;;;;;12.93;8.57;;;;;;;25.18;45.29;101382.56;5008477;28;20026;-68
2023/09/17 05:27:52;;;;;;;11.15;8.43;;;;;;;25.42;45.83;101385.53;5008970;28;20168;-68
2023/09/17 05:30:17;;;;;;;15.90;9.02;;;;;;;25.53;45.32;101372.31;4991401;28;20030;-68
2023/09/17 05:32:43;;;;;;;14.35;8.82;;;;;;;25.85;44.65;101372.00;4991677;28;20549;-68
2023/09/17 05:35:09;;;;;;;12.35;8.05;;;;;;;25.43;45.57;101373.00;5009932;28;20129;-68
2023/09/17 05:37:34;;;;;;;13.25;8.88;;;;;;;24.92;46.16;101378.84;5012353;28;20022;-68
2023/09/17 05:40:00;;;;;;;12.88;7.85;;;;;;;26.06;44.34;101382.28;4994998;28;20030;-68
2023/09/17 05:42:25;;;;;;;13.10;8.52;;;;;;;25.68;45.39;101383.00;5012994;28;20013;-69
2023/09/17 05:44:51;;;;;;;11.48;8.10;;;;;;;25.72;44.92;101384.50;5010688;28;20033;-68
2023/09/17 05:47:16;;;;;;;13.60;8.27;;;;;;;26.02;44.43;101378.09;5013040;28;20036;-69
2023/09/17 05:49:41;;;;;;;12.93;8.25;;;;;;;25.53;45.26;101382.16;4994526;28;20026;-68
2023/09/17 05:52:07;;;;;;;14.90;9.52;;;;;;;25.35;45.83;101378.88;5011365;28;20159;-68
2023/09/17 05:54:32;;;;;;;14.32;8.80;;;;;;;25.68;45.20;101380.31;4994950;28;20021;-68
2023/09/17 05:56:58;;;;;;;14.73;8.60;;;;;;;25.54;45.83;101376.72;4994052;28;20157;-69
2023/09/17 05:59:23;;;;;;;13.95;8.80;;;;;;;25.63;45.33;101379.75;4995196;28;20017;-68
2023/09/17 06:01:48;;;;;;;13.77;8.13;;;;;;;25.65;45.13;101375.13;5012801;28;20033;-68
2023/09/17 06:04:14;;;;;;;12.57;8.00;;;;;;;25.43;45.14;101373.88;4993707;28;20018;-68
2023/09/17 06:06:39;;;;;;;14.95;8.52;;;;;;;25.93;44.86;101376.03;4995154;28;20489;-68
2023/09/17 06:09:05;;;;;;;12.82;7.60;;;;;;;25.74;45.48;101367.34;5011041;28;20021;-68
2023/09/17 06:11:30;;;;;;;13.45;8.80;;;;;;;24.97;46.65;101366.06;5010668;28;20029;-69
2023/09/17 06:13:56;;;;;;;12.85;7.65;;;;;;;25.19;46.49;101363.72;4994551;28;20025;-69
2023/09/17 06:16:21;;;;;;;13.00;8.07;;;;;;;25.11;46.76;101363.34;5010854;28;20057;-68
2023/09/17 06:18:47;;;;;;;10.68;6.75;;;;;;;24.04;48.72;101377.78;4994232;28;20108;-68
2023/09/17 06:21:12;;;;;;;14.13;7.00;;;;;;;25.11;46.80;101365.19;4994258;28;20478;-68
2023/09/17 06:23:38;;;;;;;12.93;7.05;;;;;;;24.72;47.46;101383.63;4994589;28;20053;-68
2023/09/17 06:26:07;;;;;;;9.32;6.38;;;;;;;24.15;49.73;101390.53;5009936;28;20508;-68
2023/09/17 06:28:32;;;;;;;9.85;6.30;;;;;;;23.86;51.43;101386.81;5011977;28;20034;-68
2023/09/17 06:30:58;;;;;;;9.93;6.28;;;;;;;24.44;50.61;101385.25;4994126;28;20020;-69
2023/09/17 06:33:23;;;;;;;14.57;7.95;;;;;;;23.48;53.52;101380.06;4993855;28;20461;-68
2023/09/17 06:35:49;;;;;;;10.85;7.07;;;;;;;23.55;54.24;101385.91;5012081;28;20447;-69
2023/09/17 06:38:14;;;;;;;13.45;7.60;;;;;;;22.45;58.89;101388.16;5010137;28;20440;-68
2023/09/17 06:40:40;;;;;;;12.00;7.50;;;;;;;22.32;59.76;101390.56;4993460;28;20022;-68
2023/09/17 06:43:05;;;;;;;14.18;7.50;;;;;;;22.77;59.58;101383.84;4993831;28;20466;-68
2023/09/17 06:45:31;;;;;;;14.15;7.07;;;;;;;23.81;56.09;101392.44;5012060;28;20057;-68
2023/09/17 06:47:56;;;;;;;12.48;7.13;;;;;;;23.71;57.13;101396.56;5009289;28;20025;-68
2023/09/17 06:50:21;;;;;;;15.90;8.23;;;;;;;22.78;59.92;101393.56;5011933;28;20060;-67
2023/09/17 06:52:47;;;;;;;14.63;8.48;;;;;;;23.29;58.83;101384.69;4994032;28;20030;-67
2023/09/17 06:55:12;;;;;;;15.98;8.95;;;;;;;23.20;59.49;101381.59;5010715;28;20025;-67
2023/09/17 06:57:38;;;;;;;14.18;9.00;;;;;;;22.94;60.47;101388.25;5011569;28;20080;-67
2023/09/17 07:00:04;;;;;;;17.05;9.75;;;;;;;23.26;60.29;101390.16;4993130;28;20044;-67
2023/09/17 07:02:29;;;;;;;16.73;10.02;;;;;;;23.10;59.77;101390.13;4993759;28;20401;-68
2023/09/17 07:04:55;;;;;;;17.50;10.27;;;;;;;23.27;60.21;101382.06;5010992;28;20036;-68
2023/09/17 07:07:21;;;;;;;17.40;9.70;;;;;;;22.81;62.01;101393.41;5009375;28;20124;-69
2023/09/17 07:09:47;;;;;;;15.57;9.90;;;;;;;22.17;66.05;101401.06;5011343;28;20033;-68
2023/09/17 07:12:12;;;;;;;16.27;9.93;;;;;;;22.70;65.52;101398.44;4993304;28;20494;-68
2023/09/17 07:14:37;;;;;;;19.10;10.73;;;;;;;23.12;63.97;101397.13;4992983;28;20038;-69
2023/09/17 07:17:03;;;;;;;18.75;10.32;;;;;;;22.88;63.98;101402.78;5009669;28;20033;-68
2023/09/17 07:19:28;;;;;;;15.95;9.38;;;;;;;23.59;61.72;101399.91;4993553;28;20033;-68
2023/09/17 07:21:54;;;;;;;18.90;10.02;;;;;;;23.54;62.41;101401.03;5008429;28;20034;-69
2023/09/17 07:24:19;;;;;;;18.45;10.50;;;;;;;22.86;64.05;101402.00;5009857;28;20434;-69
2023/09/17 07:26:44;;;;;;;23.70;11.45;;;;;;;23.18;64.13;101402.13;5009662;28;20061;-69
2023/09/17 07:29:10;;;;;;;17.63;10.02;;;;;;;23.42;62.55;101396.38;5008589;28;20473;-69
2023/09/17 07:31:35;;;;;;;17.05;10.10;;;;;;;23.82;60.38;101404.84;5010671;28;20040;-69
2023/09/17 07:34:01;;;;;;;19.65;10.48;;;;;;;23.05;63.52;101398.34;5009145;28;20032;-69
2023/09/17 07:36:26;;;;;;;19.73;9.73;;;;;;;23.39;61.80;101401.88;5008861;28;20120;-69
2023/09/17 07:38:52;;;;;;;14.93;9.82;;;;;;;23.63;61.24;101394.34;4992629;28;20010;-68
2023/09/17 07:41:17;;;;;;;16.80;10.05;;;;;;;23.12;64.32;101391.81;4993203;28;20462;-68
2023/09/17 07:43:43;;;;;;;21.33;10.25;;;;;;;23.69;62.22;101393.13;4992193;28;20092;-68
2023/09/17 07:46:13;;;;;;;19.40;11.10;;;;;;;23.25;62.80;101394.66;4992560;28;20030;-69
2023/09/17 07:48:38;;;;;;;22.17;11.65;;;;;;;23.44;62.98;101399.84;5009178;28;20030;-68
2023/09/17 07:51:04;;;;;;;18.05;10.75;;;;;;;22.91;64.28;101392.91;5008299;28;20453;-69
2023/09/17 07:53:29;;;;;;;18.52;10.85;;;;;;;23.44;63.62;101388.28;5009229;28;20017;-69
2023/09/17 07:55:56;;;;;;;22.08;11.70;;;;;;;23.36;62.74;101392.25;4992494;28;20481;-68
2023/09/17 07:58:21;;;;;;;20.58;11.07;;;;;;;23.20;64.53;101392.25;5009355;28;20018;-69
2023/09/17 08:00:46;;;;;;;16.65;9.85;;;;;;;22.86;63.81;101399.34;5009280;28;20041;-68
2023/09/17 08:03:16;;;;;;;22.02;12.02;;;;;;;22.63;66.42;101395.22;4992318;28;20025;-68
2023/09/17 08:05:46;;;;;;;23.23;11.95;;;;;;;22.99;65.86;101404.03;4992499;28;20124;-68
2023/09/17 08:08:13;;;;;;;21.55;11.38;;;;;;;22.99;65.51;101401.38;5010078;28;20026;-68
2023/09/17 08:10:39;;;;;;;21.02;11.45;;;;;;;23.14;64.54;101395.22;4991741;28;20032;-68
2023/09/17 08:13:05;;;;;;;20.17;11.45;;;;;;;23.85;62.39;101388.63;5008558;28;20022;-68
2023/09/17 08:15:30;;;;;;;19.75;11.45;;;;;;;24.16;60.84;101392.22;5009092;28;20040;-68
2023/09/17 08:17:56;;;;;;;21.00;12.57;;;;;;;23.46;63.06;101391.75;4990986;28;20018;-68
2023/09/17 08:20:22;;;;;;;19.55;11.18;;;;;;;22.43;67.41;101385.59;4992471;28;20030;-69
2023/09/17 08:22:50;;;;;;;19.48;12.00;;;;;;;22.13;70.08;101387.97;5008805;28;20108;-69
2023/09/17 08:25:16;;;;;;;23.20;11.88;;;;;;;22.25;70.28;101378.50;5007426;28;20109;-68
2023/09/17 08:27:41;;;;;;;21.00;11.48;;;;;;;22.51;69.21;101377.22;5008691;28;20117;-69
2023/09/17 08:30:11;;;;;;;18.40;10.85;;;;;;;22.40;69.39;101380.44;5008451;28;20025;-69
2023/09/17 08:32:40;;;;;;;21.00;12.00;;;;;;;22.65;68.28;101373.81;4991880;28;20481;-68
2023/09/17 08:35:07;;;;;;;23.50;12.65;;;;;;;23.11;67.92;101366.03;5008228;28;20034;-69
2023/09/17 08:37:34;;;;;;;21.13;11.95;;;;;;;23.47;65.68;101377.47;4992662;28;20385;-69
2023/09/17 08:39:59;;;;;;;19.48;11.95;;;;;;;23.33;65.55;101376.41;5007244;28;20497;-69
2023/09/17 08:42:27;;;;;;;20.02;11.98;;;;;;;23.12;66.22;101373.13;5008714;28;20053;-68
2023/09/17 08:44:56;;;;;;;19.23;11.02;;;;;;;24.20;63.26;101382.22;5007838;28;20034;-69
2023/09/17 08:47:22;;;;;;;19.17;11.20;;;;;;;23.40;65.65;101381.41;5009228;28;20053;-68
2023/09/17 08:49:47;;;;;;;21.58;11.80;;;;;;;23.77;62.67;101368.66;4992186;28;20061;-69
2023/09/17 08:52:17;;;;;;;22.48;11.93;;;;;;;23.43;67.35;101376.75;4991745;28;20409;-69
2023/09/17 08:54:43;;;;;;;20.05;12.68;;;;;;;23.90;63.54;101384.88;4991401;28;20026;-69
2023/09/17 08:57:12;;;;;;;22.15;11.93;;;;;;;23.29;65.23;101384.69;5009312;28;20033;-69
2023/09/17 08:59:41;;;;;;;21.33;11.75;;;;;;;23.83;62.92;101395.84;4991205;28;20112;-69
2023/09/17 09:02:20;;;;;;;21.60;11.93;;;;;;;23.00;65.69;101403.09;5009216;28;20494;-69
2023/09/17 09:04:50;;;;;;;21.33;10.82;;;;;;;23.78;62.49;101400.63;4992198;28;20367;-68
2023/09/17 09:07:20;;;;;;;19.40;12.20;;;;;;;23.91;62.64;101387.44;4991227;28;20034;-69
2023/09/17 09:09:48;;;;;;;20.27;11.70;;;;;;;24.13;61.45;101391.56;5008406;28;20022;-69
2023/09/17 09:12:14;;;;;;;18.38;10.68;;;;;;;23.88;62.59;101391.16;4995323;28;20028;-69
2023/09/17 09:14:40;;;;;;;20.10;11.18;;;;;;;24.28;61.92;101395.13;4995195;28;20120;-69
2023/09/17 09:17:06;;;;;;;20.63;10.57;;;;;;;24.15;62.22;101395.84;5013159;28;20030;-69
2023/09/17 09:19:31;;;;;;;20.35;11.60;;;;;;;24.47;60.75;101387.75;5012231;28;20416;-69
2023/09/17 09:21:57;;;;;;;16.42;9.52;;;;;;;25.10;58.14;101383.06;5010905;28;20033;-69
2023/09/17 09:24:29;;;;;;;18.05;9.65;;;;;;;24.28;60.42;101395.13;5012386;28;20398;-69
2023/09/17 09:26:55;;;;;;;17.67;9.93;;;;;;;24.50;60.49;101390.22;5013351;28;20066;-69
2023/09/17 09:29:20;;;;;;;17.27;9.75;;;;;;;24.46;59.53;101387.84;5011196;28;20030;-68
2023/09/17 09:31:46;;;;;;;15.65;9.90;;;;;;;24.85;59.41;101387.25;5011849;28;20026;-69
2023/09/17 09:34:12;;;;;;;17.88;10.05;;;;;;;24.61;59.82;101391.41;5011479;28;20057;-69
2023/09/17 09:36:44;;;;;;;12.77;8.30;;;;;;;24.97;58.50;101387.44;5012514;28;20069;-69
2023/09/17 09:39:14;;;;;;;16.83;9.02;;;;;;;24.68;59.00;101392.78;4994889;28;20477;-69
2023/09/17 09:41:40;;;;;;;15.95;9.43;;;;;;;25.14;57.40;101394.41;5013268;28;20169;-69
2023/09/17 09:44:07;;;;;;;17.33;9.27;;;;;;;24.90;57.34;101387.81;4994338;28;20022;-68
2023/09/17 09:46:33;;;;;;;12.98;8.50;;;;;;;24.28;59.57;101385.31;4995335;28;20022;-68
2023/09/17 09:49:02;;;;;;;15.35;8.32;;;;;;;24.93;58.21;101372.56;5010520;28;20084;-69
2023/09/17 09:51:35;;;;;;;14.15;8.68;;;;;;;25.21;56.88;101363.63;5012510;28;20474;-68
2023/09/17 09:54:01;;;;;;;11.40;7.97;;;;;;;25.36;56.30;101367.19;4994880;28;20037;-68
2023/09/17 09:56:28;;;;;;;16.48;8.48;;;;;;;25.16;55.96;101366.63;4994564;28;20083;-69
2023/09/17 09:58:58;;;;;;;11.77;7.65;;;;;;;24.98;56.47;101351.75;4994641;28;20029;-68
2023/09/17 10:01:25;;;;;;;13.95;8.50;;;;;;;24.71;58.04;101357.84;4994844;28;20018;-68
2023/09/17 10:03:56;;;;;;;15.32;8.20;;;;;;;24.57;58.98;101350.63;4994273;28;20040;-68
2023/09/17 10:06:23;;;;;;;12.98;8.32;;;;;;;24.35;58.36;101351.06;4994854;28;20025;-68
2023/09/17 10:08:48;;;;;;;11.40;8.18;;;;;;;24.95;57.00;101349.22;4994961;28;20076;-68
2023/09/17 10:11:15;;;;;;;12.13;7.75;;;;;;;24.85;56.26;101347.16;4993896;28;20017;-68
2023/09/17 10:13:42;;;;;;;13.52;8.55;;;;;;;24.82;56.77;101344.66;4994903;28;20026;-71
2023/09/17 10:16:07;;;;;;;11.43;7.70;;;;;;;25.42;55.51;101344.50;5012268;28;20100;-68
2023/09/17 10:18:36;;;;;;;14.98;8.50;;;;;;;24.68;56.99;101350.84;5011744;28;20113;-69
2023/09/17 10:21:02;;;;;;;13.30;7.63;;;;;;;24.64;56.47;101341.31;5011795;28;20552;-68
2023/09/17 10:23:31;;;;;;;11.98;7.82;;;;;;;25.63;54.68;101347.63;4991511;28;20054;-69
2023/09/17 10:25:58;;;;;;;12.55;7.60;;;;;;;25.84;53.75;101340.88;4990415;28;20113;-69
2023/09/17 10:28:24;;;;;;;12.93;7.78;;;;;;;25.69;53.56;101344.53;4975182;28;20815;-69
2023/09/17 10:30:51;;;;;;;14.82;8.70;;;;;;;26.21;52.54;101327.69;4974886;28;20109;-69
2023/09/17 10:33:17;;;;;;;12.27;7.80;;;;;;;25.44;53.75;101326.56;4974649;28;20390;-68
2023/09/17 10:35:44;;;;;;;13.55;8.07;;;;;;;25.63;54.24;101331.56;4991345;28;20033;-69
2023/09/17 10:38:11;;;;;;;13.02;8.20;;;;;;;25.80;53.48;101339.34;4991291;28;20105;-69
2023/09/17 10:40:37;;;;;;;15.32;8.98;;;;;;;25.75;53.28;101333.44;4992548;28;20100;-69
2023/09/17 10:43:06;;;;;;;13.32;8.15;;;;;;;25.91;53.53;101331.44;4990654;28;20033;-68
2023/09/17 10:45:34;;;;;;;16.58;8.27;;;;;;;25.39;55.16;101341.09;4974239;28;20026;-69
2023/09/17 10:48:02;;;;;;;15.00;8.65;;;;;;;24.82;55.40;101330.44;4990527;28;20718;-69
2023/09/17 10:50:29;;;;;;;15.43;7.97;;;;;;;24.99;55.71;101327.56;4992251;28;20026;-69
2023/09/17 10:52:54;;;;;;;11.60;8.00;;;;;;;25.65;53.87;101329.63;4973818;28;20050;-69
2023/09/17 10:55:22;;;;;;;19.95;10.38;;;;;;;24.97;56.47;101332.16;4992283;28;20557;-69
2023/09/17 10:58:00;;;;;;;12.90;8.40;;;;;;;25.12;55.83;101332.16;4992884;28;20466;-69
2023/09/17 11:00:28;;;;;;;17.83;9.43;;;;;;;26.12;53.54;101328.31;4973787;28;20022;-69
2023/09/17 11:02:57;;;;;;;17.75;9.32;;;;;;;26.17;53.50;101326.19;4990428;28;20474;-69
2023/09/17 11:05:25;;;;;;;22.50;10.65;;;;;;;25.52;54.06;101326.91;4974452;28;20030;-68
2023/09/17 11:07:56;;;;;;;16.02;9.43;;;;;;;25.37;54.78;101323.44;4973242;28;20041;-69
2023/09/17 11:10:23;;;;;;;15.85;9.20;;;;;;;26.19;53.23;101324.25;4991723;28;20097;-69
2023/09/17 11:12:49;;;;;;;16.65;9.65;;;;;;;26.40;52.00;101323.72;4991971;28;20433;-69
2023/09/17 11:15:16;;;;;;;16.83;9.35;;;;;;;26.44;52.01;101317.19;4973144;28;20506;-69